sensor_id;sensor_type;location;lat;lon;timestamp;pressure;altitude;pressure_sealevel;temperature;humidity
11912;BME280;6016;41.928;25.556;2023-03-11T00:01:41;97311.81;;;14.67;89.45
11912;BME280;6016;41.928;25.556;2023-03-11T00:04:09;97042.78;;;12.92;90.34
11912;BME280;6016;41.928;25.556;2023-03-11T00:06:36;97328.09;;;14.71;90.67
11912;BME280;6016;41.928;25.556;2023-03-11T00:09:03;97290.41;;;14.55;91.08
11912;BME280;6016;41.928;25.556;2023-03-11T00:11:30;97325.88;;;14.68;92.13
11912;BME280;6016;41.928;25.556;2023-03-11T00:13:57;97340.38;;;14.58;91.90
11912;BME280;6016;41.928;25.556;2023-03-11T00:16:24;97271.34;;;14.26;91.87
11912;BME280;6016;41.928;25.556;2023-03-11T00:18:51;97301.53;;;14.32;92.42
11912;BME280;6016;41.928;25.556;2023-03-11T00:21:19;97290.94;;;14.25;92.77
11912;BME280;6016;41.928;25.556;2023-03-11T00:23:46;97323.28;;;14.54;93.07
11912;BME280;6016;41.928;25.556;2023-03-11T00:26:13;97323.41;;;14.66;92.87
11912;BME280;6016;41.928;25.556;2023-03-11T00:28:40;97278.25;;;14.34;92.79
11912;BME280;6016;41.928;25.556;2023-03-11T00:31:06;97321.22;;;14.56;92.83
11912;BME280;6016;41.928;25.556;2023-03-11T00:33:33;97290.88;;;14.45;92.64
11912;BME280;6016;41.928;25.556;2023-03-11T00:36:00;97246.28;;;14.15;92.54
11912;BME280;6016;41.928;25.556;2023-03-11T00:38:28;97313.22;;;14.63;90.53
11912;BME280;6016;41.928;25.556;2023-03-11T00:40:55;97309.16;;;14.74;90.75
11912;BME280;6016;41.928;25.556;2023-03-11T00:43:22;97305.91;;;14.58;91.33
11912;BME280;6016;41.928;25.556;2023-03-11T00:45:49;97274.72;;;14.47;90.76
11912;BME280;6016;41.928;25.556;2023-03-11T00:48:16;97294.19;;;14.27;91.30
11912;BME280;6016;41.928;25.556;2023-03-11T00:50:42;97314.47;;;14.67;90.61
11912;BME280;6016;41.928;25.556;2023-03-11T00:53:10;97309.31;;;14.79;89.57
11912;BME280;6016;41.928;25.556;2023-03-11T00:55:38;97236.41;;;14.36;89.00
11912;BME280;6016;41.928;25.556;2023-03-11T00:58:06;97174.78;;;13.88;88.75
11912;BME280;6016;41.928;25.556;2023-03-11T01:00:33;97303.16;;;14.92;88.06
11912;BME280;6016;41.928;25.556;2023-03-11T01:03:00;97310.97;;;14.67;88.65
11912;BME280;6016;41.928;25.556;2023-03-11T01:05:28;97252.09;;;14.44;88.66
11912;BME280;6016;41.928;25.556;2023-03-11T01:07:56;97301.91;;;14.88;88.32
11912;BME280;6016;41.928;25.556;2023-03-11T01:10:23;97298.06;;;14.84;86.71
11912;BME280;6016;41.928;25.556;2023-03-11T01:12:51;97261.22;;;14.55;87.78
11912;BME280;6016;41.928;25.556;2023-03-11T01:15:21;97292.81;;;14.70;88.81
11912;BME280;6016;41.928;25.556;2023-03-11T01:17:49;97218.03;;;14.34;87.66
11912;BME280;6016;41.928;25.556;2023-03-11T01:20:16;97265.94;;;14.53;88.06
11912;BME280;6016;41.928;25.556;2023-03-11T01:22:42;97265.66;;;14.68;88.13
11912;BME280;6016;41.928;25.556;2023-03-11T01:25:11;97240.22;;;14.54;88.37
11912;BME280;6016;41.928;25.556;2023-03-11T01:27:39;97256.28;;;14.72;88.50
11912;BME280;6016;41.928;25.556;2023-03-11T01:30:09;97251.38;;;14.76;87.88
11912;BME280;6016;41.928;25.556;2023-03-11T01:32:38;97244.38;;;14.82;87.45
11912;BME280;6016;41.928;25.556;2023-03-11T01:35:06;97194.91;;;14.55;87.76
11912;BME280;6016;41.928;25.556;2023-03-11T01:37:33;97231.66;;;14.90;87.25
11912;BME280;6016;41.928;25.556;2023-03-11T01:39:59;97222.66;;;14.91;86.93
11912;BME280;6016;41.928;25.556;2023-03-11T01:42:26;97182.78;;;14.73;86.54
11912;BME280;6016;41.928;25.556;2023-03-11T01:44:53;97214.13;;;14.89;86.68
11912;BME280;6016;41.928;25.556;2023-03-11T01:47:39;97143.25;;;14.58;85.57
11912;BME280;6016;41.928;25.556;2023-03-11T01:50:10;97176.34;;;14.87;85.03
11912;BME280;6016;41.928;25.556;2023-03-11T01:52:40;97128.63;;;14.81;84.77
11912;BME280;6016;41.928;25.556;2023-03-11T01:55:08;97136.91;;;14.91;83.76
11912;BME280;6016;41.928;25.556;2023-03-11T01:57:37;97210.94;;;15.06;83.73
11912;BME280;6016;41.928;25.556;2023-03-11T02:00:11;97198.63;;;15.12;82.64
11912;BME280;6016;41.928;25.556;2023-03-11T02:02:41;97193.75;;;15.09;82.22
11912;BME280;6016;41.928;25.556;2023-03-11T02:05:09;97180.75;;;15.00;82.41
11912;BME280;6016;41.928;25.556;2023-03-11T02:07:37;97190.97;;;14.97;82.47
11912;BME280;6016;41.928;25.556;2023-03-11T02:10:05;97194.72;;;14.89;81.89
11912;BME280;6016;41.928;25.556;2023-03-11T02:12:34;97174.03;;;14.66;82.29
11912;BME280;6016;41.928;25.556;2023-03-11T02:15:03;97167.72;;;14.60;82.81
11912;BME280;6016;41.928;25.556;2023-03-11T02:17:31;97197.88;;;14.72;83.41
11912;BME280;6016;41.928;25.556;2023-03-11T02:20:11;97123.44;;;14.28;83.52
11912;BME280;6016;41.928;25.556;2023-03-11T02:22:41;97152.72;;;14.40;84.26
11912;BME280;6016;41.928;25.556;2023-03-11T02:25:16;97194.41;;;14.72;84.15
11912;BME280;6016;41.928;25.556;2023-03-11T02:27:49;97182.22;;;14.57;84.46
11912;BME280;6016;41.928;25.556;2023-03-11T02:30:17;97098.25;;;14.05;84.78
11912;BME280;6016;41.928;25.556;2023-03-11T02:32:46;97159.50;;;14.36;85.41
11912;BME280;6016;41.928;25.556;2023-03-11T02:35:14;97177.47;;;14.66;85.63
11912;BME280;6016;41.928;25.556;2023-03-11T02:37:45;97187.91;;;14.61;86.27
11912;BME280;6016;41.928;25.556;2023-03-11T02:40:32;97195.50;;;14.57;86.34
11912;BME280;6016;41.928;25.556;2023-03-11T02:43:05;97172.97;;;14.34;87.05
11912;BME280;6016;41.928;25.556;2023-03-11T02:45:33;97191.59;;;14.60;86.37
11912;BME280;6016;41.928;25.556;2023-03-11T02:48:01;97193.88;;;14.56;87.25
11912;BME280;6016;41.928;25.556;2023-03-11T02:50:29;97114.00;;;14.00;87.51
11912;BME280;6016;41.928;25.556;2023-03-11T02:52:58;97195.28;;;14.59;87.07
11912;BME280;6016;41.928;25.556;2023-03-11T02:55:25;97192.00;;;14.63;87.50
11912;BME280;6016;41.928;25.556;2023-03-11T02:57:52;97192.03;;;14.57;87.33
11912;BME280;6016;41.928;25.556;2023-03-11T03:00:20;97173.78;;;14.35;88.22
11912;BME280;6016;41.928;25.556;2023-03-11T03:02:47;97194.41;;;14.65;87.74
11912;BME280;6016;41.928;25.556;2023-03-11T03:05:17;97176.13;;;14.57;88.01
11912;BME280;6016;41.928;25.556;2023-03-11T03:07:45;97163.94;;;14.49;88.03
11912;BME280;6016;41.928;25.556;2023-03-11T03:10:12;97106.72;;;14.21;88.32
11912;BME280;6016;41.928;25.556;2023-03-11T03:12:39;97043.38;;;13.74;88.07
11912;BME280;6016;41.928;25.556;2023-03-11T03:15:07;97098.25;;;14.05;88.62
11912;BME280;6016;41.928;25.556;2023-03-11T03:17:36;97118.31;;;13.95;88.20
11912;BME280;6016;41.928;25.556;2023-03-11T03:20:04;97164.31;;;14.46;88.21
11912;BME280;6016;41.928;25.556;2023-03-11T03:22:36;97173.38;;;14.31;88.82
11912;BME280;6016;41.928;25.556;2023-03-11T03:25:03;97081.94;;;13.63;88.88
11912;BME280;6016;41.928;25.556;2023-03-11T03:27:31;97128.53;;;13.84;89.16
11912;BME280;6016;41.928;25.556;2023-03-11T03:29:59;97076.44;;;13.64;88.68
11912;BME280;6016;41.928;25.556;2023-03-11T03:32:26;97190.53;;;14.35;88.52
11912;BME280;6016;41.928;25.556;2023-03-11T03:34:54;97197.03;;;14.40;88.36
11912;BME280;6016;41.928;25.556;2023-03-11T03:37:24;97184.88;;;14.18;88.54
11912;BME280;6016;41.928;25.556;2023-03-11T03:39:51;97135.88;;;13.89;88.77
11912;BME280;6016;41.928;25.556;2023-03-11T03:42:18;97191.78;;;14.26;88.45
11912;BME280;6016;41.928;25.556;2023-03-11T03:44:45;97182.56;;;14.35;87.26
11912;BME280;6016;41.928;25.556;2023-03-11T03:47:12;97172.06;;;14.09;88.26
11912;BME280;6016;41.928;25.556;2023-03-11T03:49:39;97143.75;;;14.02;88.37
11912;BME280;6016;41.928;25.556;2023-03-11T03:52:07;97175.81;;;14.40;87.50
11912;BME280;6016;41.928;25.556;2023-03-11T03:54:35;97125.22;;;13.96;87.35
11912;BME280;6016;41.928;25.556;2023-03-11T03:57:02;97164.34;;;14.07;88.48
11912;BME280;6016;41.928;25.556;2023-03-11T03:59:29;96999.78;;;13.17;88.49
11912;BME280;6016;41.928;25.556;2023-03-11T04:01:56;97123.31;;;13.64;87.73
11912;BME280;6016;41.928;25.556;2023-03-11T04:04:23;97114.63;;;13.96;86.94
11912;BME280;6016;41.928;25.556;2023-03-11T04:06:50;97161.81;;;14.19;87.92
11912;BME280;6016;41.928;25.556;2023-03-11T04:09:19;97096.78;;;13.71;88.01
11912;BME280;6016;41.928;25.556;2023-03-11T04:11:46;97121.19;;;13.86;88.38
11912;BME280;6016;41.928;25.556;2023-03-11T04:14:13;97080.28;;;13.75;87.52
11912;BME280;6016;41.928;25.556;2023-03-11T04:16:40;97123.31;;;14.16;87.12
11912;BME280;6016;41.928;25.556;2023-03-11T04:19:07;97128.78;;;14.21;87.03
11912;BME280;6016;41.928;25.556;2023-03-11T04:21:34;97131.00;;;14.25;86.37
11912;BME280;6016;41.928;25.556;2023-03-11T04:24:01;97100.38;;;13.90;87.37
11912;BME280;6016;41.928;25.556;2023-03-11T04:26:29;97121.50;;;14.10;87.01
11912;BME280;6016;41.928;25.556;2023-03-11T04:28:56;97107.81;;;14.13;87.62
11912;BME280;6016;41.928;25.556;2023-03-11T04:31:23;97050.22;;;13.88;86.01
11912;BME280;6016;41.928;25.556;2023-03-11T04:33:50;97093.22;;;14.29;86.12
11912;BME280;6016;41.928;25.556;2023-03-11T04:36:16;97054.84;;;14.00;85.82
11912;BME280;6016;41.928;25.556;2023-03-11T04:38:43;97102.84;;;14.24;86.20
11912;BME280;6016;41.928;25.556;2023-03-11T04:41:11;97115.63;;;14.33;85.42
11912;BME280;6016;41.928;25.556;2023-03-11T04:43:39;97112.00;;;14.28;84.68
11912;BME280;6016;41.928;25.556;2023-03-11T04:46:06;97119.34;;;14.26;86.12
11912;BME280;6016;41.928;25.556;2023-03-11T04:48:33;97034.22;;;13.70;85.90
11912;BME280;6016;41.928;25.556;2023-03-11T04:50:59;97060.47;;;13.85;85.86
11912;BME280;6016;41.928;25.556;2023-03-11T04:53:26;97121.03;;;14.20;86.22
11912;BME280;6016;41.928;25.556;2023-03-11T04:55:53;97079.63;;;14.19;85.54
11912;BME280;6016;41.928;25.556;2023-03-11T04:58:20;97092.16;;;14.05;85.71
11912;BME280;6016;41.928;25.556;2023-03-11T05:00:48;97087.53;;;14.26;85.62
11912;BME280;6016;41.928;25.556;2023-03-11T05:03:15;97118.69;;;14.37;85.50
11912;BME280;6016;41.928;25.556;2023-03-11T05:05:42;97117.00;;;14.43;85.83
11912;BME280;6016;41.928;25.556;2023-03-11T05:08:09;97112.75;;;14.42;85.87
11912;BME280;6016;41.928;25.556;2023-03-11T05:10:38;97068.25;;;14.12;85.08
11912;BME280;6016;41.928;25.556;2023-03-11T05:13:06;97123.56;;;14.40;85.33
11912;BME280;6016;41.928;25.556;2023-03-11T05:15:33;97132.63;;;14.26;85.22
11912;BME280;6016;41.928;25.556;2023-03-11T05:18:02;97144.47;;;14.23;84.44
11912;BME280;6016;41.928;25.556;2023-03-11T05:20:29;97164.06;;;14.15;85.86
11912;BME280;6016;41.928;25.556;2023-03-11T05:22:56;97060.19;;;13.54;83.96
11912;BME280;6016;41.928;25.556;2023-03-11T05:25:25;97185.28;;;14.22;83.23
11912;BME280;6016;41.928;25.556;2023-03-11T05:27:52;97114.16;;;13.60;81.77
11912;BME280;6016;41.928;25.556;2023-03-11T05:30:21;97110.72;;;13.53;82.91
11912;BME280;6016;41.928;25.556;2023-03-11T05:32:48;97109.03;;;13.65;83.91
11912;BME280;6016;41.928;25.556;2023-03-11T05:35:16;97138.34;;;13.77;84.94
11912;BME280;6016;41.928;25.556;2023-03-11T05:37:44;97215.25;;;14.23;83.90
11912;BME280;6016;41.928;25.556;2023-03-11T05:40:14;97221.22;;;14.11;85.20
11912;BME280;6016;41.928;25.556;2023-03-11T05:42:41;97219.28;;;13.73;85.69
11912;BME280;6016;41.928;25.556;2023-03-11T05:45:09;97234.75;;;13.83;85.85
11912;BME280;6016;41.928;25.556;2023-03-11T05:47:36;97218.28;;;13.54;86.74
11912;BME280;6016;41.928;25.556;2023-03-11T05:50:03;97188.34;;;13.13;87.35
11912;BME280;6016;41.928;25.556;2023-03-11T05:52:32;97179.59;;;13.26;86.12
11912;BME280;6016;41.928;25.556;2023-03-11T05:54:58;97142.31;;;13.34;85.03
11912;BME280;6016;41.928;25.556;2023-03-11T05:57:28;97161.84;;;13.33;84.96
11912;BME280;6016;41.928;25.556;2023-03-11T05:59:55;97205.03;;;13.67;85.40
11912;BME280;6016;41.928;25.556;2023-03-11T06:02:21;97197.88;;;13.81;85.32
11912;BME280;6016;41.928;25.556;2023-03-11T06:04:48;96960.84;;;12.52;85.25
11912;BME280;6016;41.928;25.556;2023-03-11T06:07:15;97170.31;;;13.89;85.36
11912;BME280;6016;41.928;25.556;2023-03-11T06:09:43;97158.75;;;13.76;86.45
11912;BME280;6016;41.928;25.556;2023-03-11T06:12:10;97148.03;;;14.03;86.01
11912;BME280;6016;41.928;25.556;2023-03-11T06:14:37;97170.00;;;14.17;85.83
11912;BME280;6016;41.928;25.556;2023-03-11T06:17:05;97099.03;;;13.67;85.69
11912;BME280;6016;41.928;25.556;2023-03-11T06:19:32;97135.25;;;13.87;85.17
11912;BME280;6016;41.928;25.556;2023-03-11T06:21:59;97174.84;;;14.27;85.52
11912;BME280;6016;41.928;25.556;2023-03-11T06:24:26;97169.38;;;14.22;82.27
11912;BME280;6016;41.928;25.556;2023-03-11T06:26:54;97119.59;;;14.24;82.32
11912;BME280;6016;41.928;25.556;2023-03-11T06:29:21;97161.47;;;14.86;81.45
11912;BME280;6016;41.928;25.556;2023-03-11T06:31:51;97165.25;;;14.97;81.77
11912;BME280;6016;41.928;25.556;2023-03-11T06:34:18;97155.91;;;14.88;82.31
11912;BME280;6016;41.928;25.556;2023-03-11T06:36:44;97156.06;;;15.00;81.54
11912;BME280;6016;41.928;25.556;2023-03-11T06:39:12;97157.13;;;15.17;80.59
11912;BME280;6016;41.928;25.556;2023-03-11T06:41:39;97150.88;;;15.05;81.67
11912;BME280;6016;41.928;25.556;2023-03-11T06:44:08;97133.66;;;15.14;81.47
11912;BME280;6016;41.928;25.556;2023-03-11T06:46:35;97153.31;;;15.32;80.59
11912;BME280;6016;41.928;25.556;2023-03-11T06:49:02;97152.72;;;15.30;80.52
11912;BME280;6016;41.928;25.556;2023-03-11T06:51:29;97094.28;;;15.11;81.34
11912;BME280;6016;41.928;25.556;2023-03-11T06:53:56;97081.72;;;15.56;79.91
11912;BME280;6016;41.928;25.556;2023-03-11T06:56:23;97138.16;;;16.68;77.02
11912;BME280;6016;41.928;25.556;2023-03-11T06:58:50;97133.84;;;17.22;75.64
11912;BME280;6016;41.928;25.556;2023-03-11T07:01:21;97045.72;;;17.23;72.50
11912;BME280;6016;41.928;25.556;2023-03-11T07:03:49;97119.03;;;19.12;69.12
11912;BME280;6016;41.928;25.556;2023-03-11T07:06:18;97111.56;;;20.20;64.51
11912;BME280;6016;41.928;25.556;2023-03-11T07:08:46;97114.31;;;20.86;60.67
11912;BME280;6016;41.928;25.556;2023-03-11T07:11:14;97102.53;;;19.99;61.99
11912;BME280;6016;41.928;25.556;2023-03-11T07:13:42;97104.31;;;19.32;63.42
11912;BME280;6016;41.928;25.556;2023-03-11T07:16:12;97079.81;;;18.66;64.74
11912;BME280;6016;41.928;25.556;2023-03-11T07:18:41;97086.81;;;19.02;64.44
11912;BME280;6016;41.928;25.556;2023-03-11T07:21:10;97095.63;;;19.02;63.04
11912;BME280;6016;41.928;25.556;2023-03-11T07:23:38;97040.88;;;17.90;64.83
11912;BME280;6016;41.928;25.556;2023-03-11T07:26:07;97130.97;;;18.00;66.12
11912;BME280;6016;41.928;25.556;2023-03-11T07:28:34;97115.09;;;17.81;66.22
11912;BME280;6016;41.928;25.556;2023-03-11T07:31:06;97138.31;;;17.81;65.79
11912;BME280;6016;41.928;25.556;2023-03-11T07:33:33;97145.50;;;17.80;67.43
11912;BME280;6016;41.928;25.556;2023-03-11T07:36:04;97151.91;;;17.55;65.81
11912;BME280;6016;41.928;25.556;2023-03-11T07:38:31;97159.00;;;17.38;66.27
11912;BME280;6016;41.928;25.556;2023-03-11T07:40:58;97112.50;;;16.98;65.81
11912;BME280;6016;41.928;25.556;2023-03-11T07:43:25;97162.94;;;17.23;66.88
11912;BME280;6016;41.928;25.556;2023-03-11T07:46:01;97162.59;;;17.20;66.62
11912;BME280;6016;41.928;25.556;2023-03-11T07:48:28;97075.06;;;16.45;63.49
11912;BME280;6016;41.928;25.556;2023-03-11T07:51:01;97137.69;;;17.14;66.47
11912;BME280;6016;41.928;25.556;2023-03-11T07:53:27;97148.69;;;17.18;65.75
11912;BME280;6016;41.928;25.556;2023-03-11T07:55:55;97127.34;;;16.94;66.13
11912;BME280;6016;41.928;25.556;2023-03-11T07:58:21;96980.53;;;15.88;64.13
11912;BME280;6016;41.928;25.556;2023-03-11T08:00:48;97112.34;;;16.57;62.67
11912;BME280;6016;41.928;25.556;2023-03-11T08:03:15;97102.66;;;16.74;65.08
11912;BME280;6016;41.928;25.556;2023-03-11T08:05:42;97097.09;;;16.76;65.08
11912;BME280;6016;41.928;25.556;2023-03-11T08:08:10;97073.91;;;16.41;62.55
11912;BME280;6016;41.928;25.556;2023-03-11T08:10:37;97166.78;;;17.15;63.68
11912;BME280;6016;41.928;25.556;2023-03-11T08:13:04;97162.06;;;16.99;65.79
11912;BME280;6016;41.928;25.556;2023-03-11T08:15:31;97145.91;;;17.12;63.69
11912;BME280;6016;41.928;25.556;2023-03-11T08:17:58;97136.63;;;17.39;63.21
11912;BME280;6016;41.928;25.556;2023-03-11T08:20:25;97168.59;;;17.63;60.56
11912;BME280;6016;41.928;25.556;2023-03-11T08:22:52;97166.75;;;17.75;62.39
11912;BME280;6016;41.928;25.556;2023-03-11T08:25:20;97166.59;;;17.82;63.59
11912;BME280;6016;41.928;25.556;2023-03-11T08:27:47;97174.13;;;17.97;60.57
11912;BME280;6016;41.928;25.556;2023-03-11T08:30:14;97171.34;;;18.04;62.46
11912;BME280;6016;41.928;25.556;2023-03-11T08:32:41;97165.81;;;18.22;60.90
11912;BME280;6016;41.928;25.556;2023-03-11T08:35:09;97139.25;;;18.27;61.72
11912;BME280;6016;41.928;25.556;2023-03-11T08:37:36;97141.47;;;18.19;62.37
11912;BME280;6016;41.928;25.556;2023-03-11T08:40:03;97129.47;;;18.04;61.66
11912;BME280;6016;41.928;25.556;2023-03-11T08:42:32;97152.91;;;18.31;59.20
11912;BME280;6016;41.928;25.556;2023-03-11T08:44:59;97158.66;;;18.23;61.84
11912;BME280;6016;41.928;25.556;2023-03-11T08:47:25;97095.38;;;17.94;60.55
11912;BME280;6016;41.928;25.556;2023-03-11T08:49:52;97153.50;;;18.33;60.81
11912;BME280;6016;41.928;25.556;2023-03-11T08:52:19;97148.41;;;18.32;58.49
11912;BME280;6016;41.928;25.556;2023-03-11T08:54:46;97142.94;;;18.26;58.25
11912;BME280;6016;41.928;25.556;2023-03-11T08:57:13;97141.88;;;18.10;57.66
11912;BME280;6016;41.928;25.556;2023-03-11T08:59:41;96929.09;;;17.01;58.37
11912;BME280;6016;41.928;25.556;2023-03-11T09:02:08;97034.66;;;17.84;54.89
11912;BME280;6016;41.928;25.556;2023-03-11T09:04:35;97108.56;;;18.01;56.60
11912;BME280;6016;41.928;25.556;2023-03-11T09:07:02;97101.56;;;17.83;58.18
11912;BME280;6016;41.928;25.556;2023-03-11T09:09:29;97098.66;;;17.84;59.33
11912;BME280;6016;41.928;25.556;2023-03-11T09:11:56;97084.84;;;17.23;59.48
11912;BME280;6016;41.928;25.556;2023-03-11T09:14:23;97012.81;;;16.70;58.69
11912;BME280;6016;41.928;25.556;2023-03-11T09:16:51;97082.97;;;17.35;57.74
11912;BME280;6016;41.928;25.556;2023-03-11T09:19:18;97077.75;;;17.52;56.02
11912;BME280;6016;41.928;25.556;2023-03-11T09:21:45;97073.47;;;17.51;58.13
11912;BME280;6016;41.928;25.556;2023-03-11T09:24:11;97038.88;;;17.15;57.82
11912;BME280;6016;41.928;25.556;2023-03-11T09:26:38;97079.75;;;17.45;56.39
11912;BME280;6016;41.928;25.556;2023-03-11T09:29:05;97070.22;;;17.49;57.05
11912;BME280;6016;41.928;25.556;2023-03-11T09:31:32;97075.34;;;17.51;57.07
11912;BME280;6016;41.928;25.556;2023-03-11T09:34:01;97035.72;;;17.30;58.43
11912;BME280;6016;41.928;25.556;2023-03-11T09:36:28;96944.44;;;16.70;55.56
11912;BME280;6016;41.928;25.556;2023-03-11T09:38:54;97068.44;;;17.67;54.69
11912;BME280;6016;41.928;25.556;2023-03-11T09:41:26;97080.78;;;17.85;54.35
11912;BME280;6016;41.928;25.556;2023-03-11T09:44:17;97080.63;;;17.92;53.68
11912;BME280;6016;41.928;25.556;2023-03-11T09:50:02;96800.34;;;16.14;55.77
11912;BME280;6016;41.928;25.556;2023-03-11T09:52:35;97066.03;;;17.94;53.92
11912;BME280;6016;41.928;25.556;2023-03-11T09:55:20;97080.31;;;18.63;51.70
11912;BME280;6016;41.928;25.556;2023-03-11T09:57:51;97059.53;;;19.00;51.54
11912;BME280;6016;41.928;25.556;2023-03-11T10:00:22;97047.94;;;19.11;50.79
11912;BME280;6016;41.928;25.556;2023-03-11T10:02:49;97059.78;;;19.20;51.39
11912;BME280;6016;41.928;25.556;2023-03-11T10:05:21;97061.63;;;19.37;49.12
11912;BME280;6016;41.928;25.556;2023-03-11T10:07:53;97060.75;;;19.76;46.73
11912;BME280;6016;41.928;25.556;2023-03-11T10:10:26;97039.53;;;19.91;47.79
11912;BME280;6016;41.928;25.556;2023-03-11T10:12:59;97049.59;;;19.84;50.19
11912;BME280;6016;41.928;25.556;2023-03-11T10:15:38;97061.16;;;19.01;46.28
11912;BME280;6016;41.928;25.556;2023-03-11T10:18:35;97062.28;;;19.27;46.97
11912;BME280;6016;41.928;25.556;2023-03-11T10:21:12;97051.06;;;19.70;47.92
11912;BME280;6016;41.928;25.556;2023-03-11T10:23:56;97043.72;;;20.37;50.15
11912;BME280;6016;41.928;25.556;2023-03-11T10:26:32;97041.50;;;20.61;45.45
11912;BME280;6016;41.928;25.556;2023-03-11T10:29:05;96984.38;;;20.88;45.08
11912;BME280;6016;41.928;25.556;2023-03-11T10:31:36;97044.88;;;21.27;45.53
11912;BME280;6016;41.928;25.556;2023-03-11T10:34:11;96985.41;;;20.82;43.89
11912;BME280;6016;41.928;25.556;2023-03-11T10:36:47;97062.63;;;21.39;43.91
11912;BME280;6016;41.928;25.556;2023-03-11T10:39:16;97026.09;;;21.22;43.42
11912;BME280;6016;41.928;25.556;2023-03-11T10:41:46;97038.97;;;21.20;43.34
11912;BME280;6016;41.928;25.556;2023-03-11T10:44:18;97034.19;;;21.32;47.73
11912;BME280;6016;41.928;25.556;2023-03-11T10:46:48;97044.09;;;21.32;44.67
11912;BME280;6016;41.928;25.556;2023-03-11T10:49:18;97035.63;;;20.97;45.48
11912;BME280;6016;41.928;25.556;2023-03-11T10:51:48;97043.66;;;20.97;45.18
11912;BME280;6016;41.928;25.556;2023-03-11T10:54:24;97052.06;;;21.11;43.54
11912;BME280;6016;41.928;25.556;2023-03-11T10:56:55;97037.84;;;21.16;45.02
11912;BME280;6016;41.928;25.556;2023-03-11T10:59:28;97055.03;;;21.20;43.45
11912;BME280;6016;41.928;25.556;2023-03-11T11:01:58;97019.91;;;21.16;42.05
11912;BME280;6016;41.928;25.556;2023-03-11T11:04:29;97036.28;;;21.20;44.04
11912;BME280;6016;41.928;25.556;2023-03-11T11:06:57;96952.75;;;20.47;42.85
11912;BME280;6016;41.928;25.556;2023-03-11T11:09:25;97019.13;;;20.78;42.91
11912;BME280;6016;41.928;25.556;2023-03-11T11:12:03;97044.53;;;20.70;41.95
11912;BME280;6016;41.928;25.556;2023-03-11T11:14:47;97042.34;;;21.00;43.56
11912;BME280;6016;41.928;25.556;2023-03-11T11:17:20;97045.88;;;21.11;44.03
11912;BME280;6016;41.928;25.556;2023-03-11T11:19:50;96890.44;;;19.87;43.34
11912;BME280;6016;41.928;25.556;2023-03-11T11:22:20;97031.06;;;20.27;41.19
11912;BME280;6016;41.928;25.556;2023-03-11T11:24:49;97006.69;;;19.74;44.95
11912;BME280;6016;41.928;25.556;2023-03-11T11:27:18;96990.06;;;19.44;43.59
11912;BME280;6016;41.928;25.556;2023-03-11T11:29:47;97022.88;;;19.39;44.28
11912;BME280;6016;41.928;25.556;2023-03-11T11:32:17;96986.72;;;18.92;45.05
11912;BME280;6016;41.928;25.556;2023-03-11T11:34:53;96944.59;;;18.77;44.92
11912;BME280;6016;41.928;25.556;2023-03-11T11:37:24;96904.81;;;18.81;46.97
11912;BME280;6016;41.928;25.556;2023-03-11T11:39:59;97012.53;;;19.93;46.32
11912;BME280;6016;41.928;25.556;2023-03-11T11:42:33;97015.84;;;20.33;43.90
11912;BME280;6016;41.928;25.556;2023-03-11T11:45:03;96907.28;;;20.20;44.03
11912;BME280;6016;41.928;25.556;2023-03-11T11:47:32;96991.25;;;21.27;43.27
11912;BME280;6016;41.928;25.556;2023-03-11T11:50:02;96992.41;;;21.52;39.21
11912;BME280;6016;41.928;25.556;2023-03-11T11:52:35;96953.34;;;21.03;37.45
11912;BME280;6016;41.928;25.556;2023-03-11T11:55:08;96990.66;;;21.10;38.54
11912;BME280;6016;41.928;25.556;2023-03-11T11:57:41;96981.47;;;20.95;37.03
11912;BME280;6016;41.928;25.556;2023-03-11T12:00:17;96894.84;;;20.41;40.25
11912;BME280;6016;41.928;25.556;2023-03-11T12:02:53;96987.97;;;21.15;40.56
11912;BME280;6016;41.928;25.556;2023-03-11T12:05:27;96944.59;;;21.23;36.51
11912;BME280;6016;41.928;25.556;2023-03-11T12:08:08;96988.69;;;21.63;37.69
11912;BME280;6016;41.928;25.556;2023-03-11T12:10:41;96321.94;;;16.84;35.48
11912;BME280;6016;41.928;25.556;2023-03-11T12:13:49;96987.63;;;21.64;36.53
11912;BME280;6016;41.928;25.556;2023-03-11T12:16:31;96990.91;;;21.72;36.89
11912;BME280;6016;41.928;25.556;2023-03-11T12:19:05;96983.84;;;21.60;36.22
11912;BME280;6016;41.928;25.556;2023-03-11T12:21:53;96933.50;;;20.99;38.75
11912;BME280;6016;41.928;25.556;2023-03-11T12:24:42;96995.38;;;21.50;39.51
11912;BME280;6016;41.928;25.556;2023-03-11T12:27:19;96968.72;;;21.28;40.97
11912;BME280;6016;41.928;25.556;2023-03-11T12:29:51;96973.91;;;21.56;37.02
11912;BME280;6016;41.928;25.556;2023-03-11T12:32:23;96959.59;;;21.29;38.25
11912;BME280;6016;41.928;25.556;2023-03-11T12:34:50;96997.69;;;21.26;37.73
11912;BME280;6016;41.928;25.556;2023-03-11T12:37:20;96998.75;;;21.25;37.54
11912;BME280;6016;41.928;25.556;2023-03-11T12:39:49;96999.53;;;21.15;38.51
11912;BME280;6016;41.928;25.556;2023-03-11T12:42:19;96901.63;;;20.11;42.94
11912;BME280;6016;41.928;25.556;2023-03-11T12:44:49;97002.19;;;20.72;39.15
11912;BME280;6016;41.928;25.556;2023-03-11T12:47:23;96968.13;;;19.97;40.41
11912;BME280;6016;41.928;25.556;2023-03-11T12:49:53;97000.75;;;19.94;43.52
11912;BME280;6016;41.928;25.556;2023-03-11T12:52:30;96963.44;;;19.54;41.45
11912;BME280;6016;41.928;25.556;2023-03-11T12:55:35;96987.50;;;19.54;44.08
11912;BME280;6016;41.928;25.556;2023-03-11T13:01:14;97020.19;;;19.39;48.16
11912;BME280;6016;41.928;25.556;2023-03-11T13:04:13;96975.84;;;18.99;51.05
11912;BME280;6016;41.928;25.556;2023-03-11T13:07:15;97003.13;;;19.40;50.99
11912;BME280;6016;41.928;25.556;2023-03-11T13:10:12;96966.22;;;18.98;52.06
11912;BME280;6016;41.928;25.556;2023-03-11T13:12:43;97013.69;;;18.91;53.44
11912;BME280;6016;41.928;25.556;2023-03-11T13:15:34;97014.84;;;18.78;54.98
11912;BME280;6016;41.928;25.556;2023-03-11T13:18:12;97005.44;;;18.75;54.07
11912;BME280;6016;41.928;25.556;2023-03-11T13:20:54;96966.50;;;18.40;54.66